Avon, Mississippi
Current Conditions -  °F | °C
As of 6:53 AM on Thursday 23 Oct 2014 (Local Time) from KGLH Reporting Station
Clear Clear  
Wind Chill: 45°   Ceiling: Unl
Heat Index: 47°   Visibility: 10mi
Dew Point: 44°   Wind: 5mph
Humidity: 90%   Direction: 30°NNE
Pressure: 30.17"   Gusts: NA
Location:  33.23°N, 91.05°W
Report Text: KGLH 231153Z AUTO 03004KT 10SM CLR 08/07 A3017 RMK AO2 SLP223 T00830067 10089 20067 51009
Loading
Personal Weather Stations






























Interactive Weather Map
Tropical Storm Tracking
New forecast layout! Learn more

10-Day Weather Forecast

Advertisements
Track Severe Weather on mobile